Main page
METAR-TAF:

METAR-TAF

Airports :

Hawarden Airport

Hawarden, Wales

latitude: 53-10N, longitude: 002-59W, elevation: 10 m

Current weather observation

The report was made 42 minutes ago, at 18:20 UTC
Wind 9 kt from the West/Southwest
Temperature 8°C
Humidity 87%
Pressure 1017 hPa
Visibility 10 km or more
Scattered clouds at a height of 3200 ft, Cumulonimbus.
Broken clouds at a height of 4600 ft
showers in vicinity

METAR: EGNR 211820Z 25009KT 9999 VCSH SCT032CB BKN046 08/06 Q1017

Time: 20:02 (19:02 UTC)

Forecast

The report was made 1 hour and 58 minutes ago, at 17:04 UTC
Forecast valid from 21 at 17 UTC to 21 at 20 UTC
Wind 9 kt from the West/Northwest
Visibility 10 km or more
Few clouds at a height of 3500 ft
Probability 40% :
Temporary
from 21 at 17 UTC to 21 at 20 UTC
Wind 15 kt from the Northwest with gusts up to 25 kt
Visibility: 6000 m
rain showers

TAF: EGNR 211704Z 2117/2120 29009KT 9999 FEW035 PROB40 TEMPO 2117/2120 31015G25KT 6000 SHRA

Weather observations and forecasts of more than 4000 airports (METAR and TAF reports).

The available stations are represented by yellow and red dots on the map.

Hover mouse over dot to see the name of the station.

Then click to see weather observations and forecasts.

To change the map : click on the green buttons with a black cross to zoom in, on the green button with a dash to zoom out, or on the green arrows for adjacent maps.


METAR-TAF: